Remote, Oregon
Current Conditions -  °F | °C
As of 6:53 PM on Saturday 22 Nov 2014 (Local Time) from KRBG Reporting Station
Broken Clouds Broken Clouds  
Wind Chill: 44°   Ceiling: 4200
Heat Index: 47°   Visibility: 10mi
Dew Point: 42°   Wind: 6mph
Humidity: 83%   Direction: 140°SE
Pressure: 30.23"   Gusts: NA
Location:  43.01°N, 123.89°W
Report Text: KRBG 230253Z AUTO 14005KT 10SM SCT034 BKN042 08/06 A3023 RMK AO2 SLP240 60007 T00830056 52025 TSNO $
Loading
Personal Weather Stations






























Interactive Weather Map New forecast layout! Learn more

10-Day Weather Forecast

Advertisements
Track Severe Weather on mobile